SKW4009 KEGE-KMSP
Flight info
| Callsign | SKW4009 |
|---|---|
| Flight time | 1h 55m |
| Altitude | 39000 |
| Route | GYPSM6 RLG DVV CHUWY KP81C SSWAN TORGY4 |
| Aircraft | E75L/M-SDE3GILORVW/S |
Departure
| Time | 2026-05-07 23:55 |
|---|---|
| Airport | Eagle County Regional Airport (KEGE) |
Arrival
| Time | 2026-05-08 01:50 |
|---|---|
| Airport | Minneapolis–Saint Paul International Airport / Wold–Chamberlain Field (KMSP) |
| Time | Latitude | Longitude | Altitude | Speed | Heading |
|---|---|---|---|---|---|
| 2026-05-07 23:36 | 39.64085 | -106.91278 | 6590 ft | 0 kts | 172° |
| 2026-05-07 23:48 | 39.64098 | -106.91280 | 6590 ft | 2 kts | 170° |
| 2026-05-07 23:48 | 39.64114 | -106.91283 | 6590 ft | 2 kts | 172° |
| 2026-05-07 23:48 | 39.64124 | -106.91285 | 6590 ft | 0 kts | 172° |
| 2026-05-07 23:49 | 39.64135 | -106.91291 | 6589 ft | 2 kts | 130° |
| 2026-05-07 23:49 | 39.64141 | -106.91307 | 6589 ft | 0 kts | 88° |
| 2026-05-07 23:49 | 39.64140 | -106.91315 | 6589 ft | 1 kts | 79° |
| 2026-05-07 23:49 | 39.64139 | -106.91318 | 6589 ft | 0 kts | 81° |
| 2026-05-07 23:51 | 39.64139 | -106.91316 | 6589 ft | 0 kts | 81° |
| 2026-05-07 23:51 | 39.64140 | -106.91306 | 6589 ft | 2 kts | 81° |
| 2026-05-07 23:52 | 39.64146 | -106.91270 | 6589 ft | 5 kts | 69° |
| 2026-05-07 23:52 | 39.64181 | -106.91240 | 6589 ft | 7 kts | 21° |
| 2026-05-07 23:52 | 39.64212 | -106.91174 | 6589 ft | 10 kts | 78° |
| 2026-05-07 23:52 | 39.64224 | -106.91069 | 6589 ft | 14 kts | 82° |
| 2026-05-07 23:53 | 39.64240 | -106.90925 | 6589 ft | 16 kts | 82° |
| 2026-05-07 23:53 | 39.64256 | -106.90773 | 6589 ft | 17 kts | 82° |
| 2026-05-07 23:53 | 39.64273 | -106.90617 | 6589 ft | 17 kts | 82° |
| 2026-05-07 23:53 | 39.64290 | -106.90460 | 6589 ft | 17 kts | 82° |
| 2026-05-07 23:54 | 39.64308 | -106.90301 | 6589 ft | 18 kts | 81° |
| 2026-05-07 23:54 | 39.64326 | -106.90138 | 6589 ft | 16 kts | 82° |
| 2026-05-07 23:54 | 39.64366 | -106.90026 | 6589 ft | 14 kts | 21° |
| 2026-05-07 23:54 | 39.64438 | -106.90076 | 6589 ft | 16 kts | 278° |
| 2026-05-07 23:55 | 39.64399 | -106.90492 | 6589 ft | 79 kts | 262° |
| 2026-05-07 23:55 | 39.64294 | -106.91451 | 6589 ft | 134 kts | 262° |
| 2026-05-07 23:55 | 39.64144 | -106.92791 | 6796 ft | 158 kts | 261° |
| 2026-05-07 23:55 | 39.63992 | -106.94222 | 7391 ft | 164 kts | 262° |
| 2026-05-07 23:56 | 39.63854 | -106.95680 | 7990 ft | 164 kts | 264° |
| 2026-05-07 23:56 | 39.63715 | -106.97113 | 8509 ft | 165 kts | 263° |
| 2026-05-07 23:56 | 39.63603 | -106.98615 | 8940 ft | 170 kts | 267° |
| 2026-05-07 23:56 | 39.63511 | -107.00220 | 9155 ft | 192 kts | 275° |
| 2026-05-07 23:57 | 39.63957 | -107.01978 | 9242 ft | 222 kts | 294° |
| 2026-05-07 23:57 | 39.64651 | -107.03922 | 9471 ft | 245 kts | 294° |
| 2026-05-07 23:57 | 39.65365 | -107.05937 | 10009 ft | 255 kts | 294° |
| 2026-05-07 23:57 | 39.66386 | -107.07903 | 10245 ft | 276 kts | 321° |
| 2026-05-07 23:58 | 39.68175 | -107.08881 | 10651 ft | 294 kts | 352° |
| 2026-05-07 23:58 | 39.70278 | -107.08693 | 11123 ft | 307 kts | 360° |
| 2026-05-07 23:58 | 39.72428 | -107.08874 | 11557 ft | 315 kts | 348° |
| 2026-05-07 23:58 | 39.74665 | -107.08779 | 11861 ft | 336 kts | 13° |
| 2026-05-07 23:59 | 39.76764 | -107.07295 | 12160 ft | 359 kts | 38° |
| 2026-05-07 23:59 | 39.78260 | -107.04623 | 12507 ft | 378 kts | 63° |
| 2026-05-07 23:59 | 39.79297 | -107.01457 | 13017 ft | 383 kts | 63° |
| 2026-05-07 23:59 | 39.80402 | -106.98326 | 13625 ft | 385 kts | 62° |
| 2026-05-08 00:00 | 39.81550 | -106.95179 | 14252 ft | 386 kts | 61° |
| 2026-05-08 00:00 | 39.82712 | -106.92026 | 14872 ft | 388 kts | 60° |
| 2026-05-08 00:00 | 39.83876 | -106.88878 | 15431 ft | 391 kts | 60° |
| 2026-05-08 00:00 | 39.85051 | -106.85700 | 16027 ft | 393 kts | 60° |
| 2026-05-08 00:01 | 39.86243 | -106.82470 | 16571 ft | 397 kts | 60° |
| 2026-05-08 00:01 | 39.87436 | -106.79240 | 17104 ft | 400 kts | 59° |
| 2026-05-08 00:01 | 39.88644 | -106.75963 | 17681 ft | 401 kts | 59° |
| 2026-05-08 00:01 | 39.89837 | -106.72725 | 18167 ft | 405 kts | 59° |
| 2026-05-08 00:02 | 39.91057 | -106.69408 | 18652 ft | 408 kts | 59° |
| 2026-05-08 00:02 | 39.92280 | -106.66080 | 19160 ft | 411 kts | 59° |
| 2026-05-08 00:02 | 39.93520 | -106.62702 | 19626 ft | 414 kts | 59° |
| 2026-05-08 00:02 | 39.94758 | -106.59327 | 20088 ft | 417 kts | 59° |
| 2026-05-08 00:03 | 39.96012 | -106.55899 | 20603 ft | 419 kts | 59° |
| 2026-05-08 00:03 | 39.97261 | -106.52486 | 21041 ft | 423 kts | 59° |
| 2026-05-08 00:03 | 39.98527 | -106.49020 | 21469 ft | 426 kts | 59° |
| 2026-05-08 00:03 | 39.99723 | -106.45483 | 21856 ft | 435 kts | 69° |
| 2026-05-08 00:04 | 40.00086 | -106.41547 | 22325 ft | 445 kts | 89° |
| 2026-05-08 00:04 | 39.99908 | -106.37515 | 22739 ft | 449 kts | 90° |
| 2026-05-08 00:04 | 39.99700 | -106.33454 | 23139 ft | 452 kts | 91° |
| 2026-05-08 00:04 | 39.99486 | -106.29364 | 23560 ft | 455 kts | 91° |
| 2026-05-08 00:05 | 39.99269 | -106.25269 | 23939 ft | 458 kts | 91° |
| 2026-05-08 00:05 | 39.99046 | -106.21083 | 24312 ft | 461 kts | 91° |
| 2026-05-08 00:05 | 39.98823 | -106.16925 | 24736 ft | 462 kts | 91° |
| 2026-05-08 00:05 | 39.98600 | -106.12787 | 25139 ft | 464 kts | 91° |
| 2026-05-08 00:06 | 39.98374 | -106.08638 | 25640 ft | 462 kts | 91° |
| 2026-05-08 00:06 | 39.98146 | -106.04476 | 26140 ft | 461 kts | 90° |
| 2026-05-08 00:06 | 39.97917 | -106.00317 | 26630 ft | 460 kts | 90° |
| 2026-05-08 00:06 | 39.97685 | -105.96142 | 27077 ft | 460 kts | 90° |
| 2026-05-08 00:07 | 39.97456 | -105.92030 | 27517 ft | 461 kts | 90° |
| 2026-05-08 00:07 | 39.97223 | -105.87891 | 27958 ft | 460 kts | 90° |
| 2026-05-08 00:07 | 39.96986 | -105.83706 | 28436 ft | 459 kts | 90° |
| 2026-05-08 00:07 | 39.96753 | -105.79589 | 28895 ft | 459 kts | 90° |
| 2026-05-08 00:08 | 39.96516 | -105.75455 | 29317 ft | 459 kts | 90° |
| 2026-05-08 00:08 | 39.96279 | -105.71355 | 29744 ft | 459 kts | 90° |
| 2026-05-08 00:08 | 39.96039 | -105.67203 | 30159 ft | 459 kts | 90° |
| 2026-05-08 00:08 | 39.95795 | -105.63024 | 30637 ft | 458 kts | 90° |
| 2026-05-08 00:09 | 39.95554 | -105.58932 | 31100 ft | 457 kts | 89° |
| 2026-05-08 00:09 | 39.95308 | -105.54769 | 31528 ft | 457 kts | 89° |
| 2026-05-08 00:09 | 39.95065 | -105.50668 | 31978 ft | 456 kts | 89° |
| 2026-05-08 00:09 | 39.94820 | -105.46574 | 32373 ft | 456 kts | 89° |
| 2026-05-08 00:10 | 39.94574 | -105.42484 | 32751 ft | 457 kts | 89° |
| 2026-05-08 00:10 | 39.94326 | -105.38370 | 33104 ft | 458 kts | 89° |
| 2026-05-08 00:10 | 39.94073 | -105.34232 | 33537 ft | 457 kts | 89° |
| 2026-05-08 00:10 | 39.93824 | -105.30151 | 33860 ft | 458 kts | 90° |
| 2026-05-08 00:11 | 39.93568 | -105.26010 | 34273 ft | 456 kts | 89° |
| 2026-05-08 00:11 | 39.93316 | -105.21926 | 34604 ft | 455 kts | 89° |
| 2026-05-08 00:11 | 39.93060 | -105.17818 | 34946 ft | 454 kts | 89° |
| 2026-05-08 00:11 | 39.92806 | -105.13763 | 35259 ft | 454 kts | 90° |
| 2026-05-08 00:12 | 39.92548 | -105.09667 | 35581 ft | 452 kts | 90° |
| 2026-05-08 00:12 | 39.92291 | -105.05607 | 35829 ft | 453 kts | 90° |
| 2026-05-08 00:12 | 39.92031 | -105.01521 | 36127 ft | 453 kts | 90° |
| 2026-05-08 00:12 | 39.91771 | -104.97476 | 36524 ft | 451 kts | 90° |
| 2026-05-08 00:13 | 39.91511 | -104.93423 | 36861 ft | 451 kts | 90° |
| 2026-05-08 00:13 | 39.91250 | -104.89394 | 37256 ft | 450 kts | 90° |
| 2026-05-08 00:13 | 39.90983 | -104.85298 | 37587 ft | 450 kts | 90° |
| 2026-05-08 00:13 | 39.90721 | -104.81288 | 37894 ft | 451 kts | 91° |
| 2026-05-08 00:14 | 39.90452 | -104.77207 | 38256 ft | 450 kts | 91° |
| 2026-05-08 00:14 | 39.90231 | -104.73164 | 38572 ft | 448 kts | 85° |
| 2026-05-08 00:14 | 39.90449 | -104.69121 | 38870 ft | 440 kts | 74° |
| 2026-05-08 00:14 | 39.91157 | -104.65329 | 39005 ft | 425 kts | 64° |
| 2026-05-08 00:15 | 39.93624 | -104.58411 | 39038 ft | 420 kts | 49° |
| 2026-05-08 00:15 | 39.95363 | -104.55431 | 39040 ft | 412 kts | 38° |
| 2026-05-08 00:15 | 39.97457 | -104.52948 | 39041 ft | 400 kts | 27° |
| 2026-05-08 00:16 | 40.02058 | -104.49044 | 39036 ft | 399 kts | 28° |
| 2026-05-08 00:16 | 40.06449 | -104.44601 | 39016 ft | 399 kts | 30° |
| 2026-05-08 00:17 | 40.10765 | -104.40073 | 39022 ft | 400 kts | 30° |
| 2026-05-08 00:17 | 40.15084 | -104.35517 | 39026 ft | 401 kts | 30° |
| 2026-05-08 00:18 | 40.19411 | -104.30943 | 39023 ft | 402 kts | 31° |
| 2026-05-08 00:18 | 40.23768 | -104.26327 | 39022 ft | 402 kts | 31° |
| 2026-05-08 00:19 | 40.28080 | -104.21754 | 39017 ft | 402 kts | 31° |
| 2026-05-08 00:19 | 40.32413 | -104.17150 | 39016 ft | 401 kts | 31° |
| 2026-05-08 00:20 | 40.36745 | -104.12538 | 39012 ft | 401 kts | 31° |
| 2026-05-08 00:20 | 40.41065 | -104.07933 | 39016 ft | 401 kts | 31° |
| 2026-05-08 00:21 | 40.45349 | -104.03358 | 39004 ft | 400 kts | 31° |
| 2026-05-08 00:21 | 40.49677 | -103.98726 | 38996 ft | 403 kts | 31° |
| 2026-05-08 00:22 | 40.54009 | -103.94084 | 39024 ft | 403 kts | 31° |
| 2026-05-08 00:22 | 40.58322 | -103.89452 | 38998 ft | 402 kts | 31° |
| 2026-05-08 00:23 | 40.62670 | -103.84778 | 39011 ft | 403 kts | 31° |
| 2026-05-08 00:23 | 40.66973 | -103.80141 | 39000 ft | 400 kts | 31° |
| 2026-05-08 00:24 | 40.71300 | -103.75473 | 39001 ft | 402 kts | 31° |
| 2026-05-08 00:24 | 40.75621 | -103.70801 | 38982 ft | 403 kts | 31° |
| 2026-05-08 00:25 | 40.79937 | -103.66128 | 38989 ft | 404 kts | 31° |
| 2026-05-08 00:25 | 40.84272 | -103.61425 | 38975 ft | 404 kts | 31° |
| 2026-05-08 00:26 | 40.88604 | -103.56717 | 38986 ft | 403 kts | 31° |
| 2026-05-08 00:26 | 40.92908 | -103.52032 | 38980 ft | 405 kts | 31° |
| 2026-05-08 00:27 | 40.97252 | -103.47295 | 38987 ft | 403 kts | 31° |
| 2026-05-08 00:27 | 41.01571 | -103.42576 | 38978 ft | 403 kts | 31° |
| 2026-05-08 00:28 | 41.05906 | -103.37834 | 38972 ft | 405 kts | 31° |
| 2026-05-08 00:28 | 41.10206 | -103.33119 | 38959 ft | 403 kts | 31° |
| 2026-05-08 00:29 | 41.14538 | -103.28361 | 38959 ft | 405 kts | 31° |
| 2026-05-08 00:29 | 41.18850 | -103.23618 | 38956 ft | 405 kts | 32° |
| 2026-05-08 00:30 | 41.23169 | -103.18857 | 38956 ft | 405 kts | 32° |
| 2026-05-08 00:30 | 41.27486 | -103.14092 | 38949 ft | 404 kts | 32° |
| 2026-05-08 00:31 | 41.31802 | -103.09319 | 38941 ft | 404 kts | 32° |
| 2026-05-08 00:31 | 41.36113 | -103.04541 | 38938 ft | 406 kts | 32° |
| 2026-05-08 00:32 | 41.40455 | -102.99720 | 38932 ft | 403 kts | 32° |
| 2026-05-08 00:32 | 41.44743 | -102.94954 | 38918 ft | 404 kts | 32° |
| 2026-05-08 00:33 | 41.49021 | -102.90188 | 38928 ft | 402 kts | 32° |
| 2026-05-08 00:33 | 41.51038 | -102.87523 | 38923 ft | 413 kts | 44° |
| 2026-05-08 00:33 | 41.52712 | -102.84354 | 38925 ft | 422 kts | 52° |
| 2026-05-08 00:34 | 41.55673 | -102.77618 | 38912 ft | 422 kts | 52° |
| 2026-05-08 00:34 | 41.58639 | -102.70882 | 38911 ft | 421 kts | 52° |
| 2026-05-08 00:35 | 41.61611 | -102.64116 | 38917 ft | 422 kts | 52° |
| 2026-05-08 00:35 | 41.64571 | -102.57366 | 38913 ft | 423 kts | 52° |
| 2026-05-08 00:36 | 41.67543 | -102.50568 | 38926 ft | 423 kts | 52° |
| 2026-05-08 00:36 | 41.70514 | -102.43761 | 38909 ft | 423 kts | 52° |
| 2026-05-08 00:37 | 41.73456 | -102.37003 | 38924 ft | 422 kts | 52° |
| 2026-05-08 00:38 | 41.77880 | -102.26814 | 38913 ft | 422 kts | 53° |
| 2026-05-08 00:38 | 41.80832 | -102.19997 | 38909 ft | 423 kts | 53° |
| 2026-05-08 00:39 | 41.83769 | -102.13197 | 38911 ft | 424 kts | 53° |
| 2026-05-08 00:39 | 41.86718 | -102.06351 | 38907 ft | 423 kts | 53° |
| 2026-05-08 00:40 | 41.89661 | -101.99507 | 38909 ft | 423 kts | 53° |
| 2026-05-08 00:40 | 41.92581 | -101.92701 | 38914 ft | 423 kts | 53° |
| 2026-05-08 00:41 | 41.95524 | -101.85825 | 38913 ft | 423 kts | 53° |
| 2026-05-08 00:41 | 41.98445 | -101.78985 | 38898 ft | 425 kts | 53° |
| 2026-05-08 00:42 | 42.01357 | -101.72150 | 38891 ft | 424 kts | 53° |
| 2026-05-08 00:42 | 42.04280 | -101.65272 | 38892 ft | 423 kts | 53° |
| 2026-05-08 00:43 | 42.07196 | -101.58394 | 38893 ft | 424 kts | 53° |
| 2026-05-08 00:43 | 42.10095 | -101.51543 | 38894 ft | 423 kts | 53° |
| 2026-05-08 00:44 | 42.13003 | -101.44652 | 38903 ft | 423 kts | 53° |
| 2026-05-08 00:44 | 42.15891 | -101.37793 | 38906 ft | 422 kts | 53° |
| 2026-05-08 00:45 | 42.18805 | -101.30858 | 38895 ft | 425 kts | 54° |
| 2026-05-08 00:45 | 42.21712 | -101.23923 | 38899 ft | 425 kts | 54° |
| 2026-05-08 00:46 | 42.24604 | -101.17007 | 38889 ft | 426 kts | 54° |
| 2026-05-08 00:46 | 42.27501 | -101.10062 | 38889 ft | 427 kts | 54° |
| 2026-05-08 00:47 | 42.30397 | -101.03101 | 38891 ft | 427 kts | 54° |
| 2026-05-08 00:47 | 42.33301 | -100.96107 | 38887 ft | 427 kts | 54° |
| 2026-05-08 00:48 | 42.36184 | -100.89147 | 38890 ft | 426 kts | 54° |
| 2026-05-08 00:48 | 42.39052 | -100.82205 | 38890 ft | 425 kts | 54° |
| 2026-05-08 00:49 | 42.41934 | -100.75216 | 38901 ft | 426 kts | 54° |
| 2026-05-08 00:49 | 42.44809 | -100.68224 | 38899 ft | 427 kts | 54° |
| 2026-05-08 00:50 | 42.47691 | -100.61198 | 38898 ft | 427 kts | 54° |
| 2026-05-08 00:50 | 42.50527 | -100.54269 | 38898 ft | 428 kts | 54° |
| 2026-05-08 00:51 | 42.53403 | -100.47225 | 38898 ft | 428 kts | 54° |
| 2026-05-08 00:51 | 42.56265 | -100.40198 | 38901 ft | 428 kts | 55° |
| 2026-05-08 00:52 | 42.59135 | -100.33135 | 38900 ft | 430 kts | 55° |
| 2026-05-08 00:52 | 42.61996 | -100.26076 | 38887 ft | 429 kts | 56° |
| 2026-05-08 00:53 | 42.64871 | -100.18966 | 38891 ft | 429 kts | 56° |
| 2026-05-08 00:53 | 42.67726 | -100.11886 | 38887 ft | 429 kts | 56° |
| 2026-05-08 00:54 | 42.70576 | -100.04805 | 38897 ft | 430 kts | 56° |
| 2026-05-08 00:54 | 42.73434 | -99.97684 | 38894 ft | 431 kts | 56° |
| 2026-05-08 00:55 | 42.76300 | -99.90525 | 38892 ft | 431 kts | 56° |
| 2026-05-08 00:55 | 42.79147 | -99.83397 | 38891 ft | 430 kts | 56° |
| 2026-05-08 00:56 | 42.81999 | -99.76238 | 38892 ft | 430 kts | 56° |
| 2026-05-08 00:56 | 42.84844 | -99.69078 | 38894 ft | 430 kts | 56° |
| 2026-05-08 00:57 | 42.87666 | -99.61962 | 38900 ft | 430 kts | 56° |
| 2026-05-08 00:57 | 42.90507 | -99.54775 | 38906 ft | 430 kts | 56° |
| 2026-05-08 00:58 | 42.93343 | -99.47586 | 38906 ft | 431 kts | 56° |
| 2026-05-08 00:58 | 42.96148 | -99.40457 | 38904 ft | 429 kts | 56° |
| 2026-05-08 00:59 | 42.98978 | -99.33248 | 38895 ft | 431 kts | 56° |
| 2026-05-08 00:59 | 43.01792 | -99.26060 | 38889 ft | 431 kts | 56° |
| 2026-05-08 01:00 | 43.04612 | -99.18838 | 38887 ft | 431 kts | 57° |
| 2026-05-08 01:00 | 43.07402 | -99.11676 | 38891 ft | 432 kts | 57° |
| 2026-05-08 01:01 | 43.10211 | -99.04446 | 38886 ft | 431 kts | 57° |
| 2026-05-08 01:01 | 43.13016 | -98.97210 | 38885 ft | 431 kts | 57° |
| 2026-05-08 01:02 | 43.15803 | -98.90001 | 38888 ft | 430 kts | 57° |
| 2026-05-08 01:02 | 43.18594 | -98.82760 | 38885 ft | 430 kts | 57° |
| 2026-05-08 01:03 | 43.21381 | -98.75517 | 38886 ft | 430 kts | 57° |
| 2026-05-08 01:03 | 43.24145 | -98.68310 | 38884 ft | 431 kts | 57° |
| 2026-05-08 01:04 | 43.26934 | -98.61021 | 38878 ft | 432 kts | 57° |
| 2026-05-08 01:04 | 43.29706 | -98.53758 | 38873 ft | 431 kts | 57° |
| 2026-05-08 01:05 | 43.32483 | -98.46465 | 38877 ft | 432 kts | 57° |
| 2026-05-08 01:05 | 43.35243 | -98.39195 | 38878 ft | 432 kts | 57° |
| 2026-05-08 01:06 | 43.38015 | -98.31878 | 38876 ft | 432 kts | 57° |
| 2026-05-08 01:06 | 43.40759 | -98.24612 | 38877 ft | 432 kts | 57° |
| 2026-05-08 01:07 | 43.43525 | -98.17271 | 38881 ft | 432 kts | 57° |
| 2026-05-08 01:07 | 43.46274 | -98.09956 | 38885 ft | 432 kts | 57° |
| 2026-05-08 01:08 | 43.49004 | -98.02673 | 38883 ft | 431 kts | 57° |
| 2026-05-08 01:08 | 43.51752 | -97.95314 | 38880 ft | 433 kts | 58° |
| 2026-05-08 01:09 | 43.54482 | -97.87953 | 38880 ft | 432 kts | 57° |
| 2026-05-08 01:09 | 43.57184 | -97.80618 | 38881 ft | 431 kts | 58° |
| 2026-05-08 01:10 | 43.59684 | -97.73075 | 38884 ft | 434 kts | 61° |
| 2026-05-08 01:10 | 43.62122 | -97.65556 | 38883 ft | 433 kts | 60° |
| 2026-05-08 01:11 | 43.64597 | -97.57931 | 38888 ft | 433 kts | 60° |
| 2026-05-08 01:11 | 43.67041 | -97.50385 | 38885 ft | 433 kts | 60° |
| 2026-05-08 01:12 | 43.69483 | -97.42824 | 38888 ft | 433 kts | 60° |
| 2026-05-08 01:12 | 43.71925 | -97.35240 | 38885 ft | 433 kts | 60° |
| 2026-05-08 01:13 | 43.74355 | -97.27673 | 38880 ft | 433 kts | 61° |
| 2026-05-08 01:13 | 43.76787 | -97.20077 | 38873 ft | 434 kts | 61° |
| 2026-05-08 01:14 | 43.79227 | -97.12435 | 38872 ft | 434 kts | 61° |
| 2026-05-08 01:14 | 43.81643 | -97.04848 | 38883 ft | 435 kts | 61° |
| 2026-05-08 01:15 | 43.84074 | -96.97186 | 38892 ft | 433 kts | 61° |
| 2026-05-08 01:15 | 43.86484 | -96.89573 | 38890 ft | 434 kts | 61° |
| 2026-05-08 01:16 | 43.88901 | -96.81913 | 38892 ft | 435 kts | 61° |
| 2026-05-08 01:16 | 43.91302 | -96.74281 | 38888 ft | 435 kts | 61° |
| 2026-05-08 01:17 | 43.93702 | -96.66634 | 38886 ft | 435 kts | 61° |
| 2026-05-08 01:17 | 43.96108 | -96.58942 | 38884 ft | 434 kts | 61° |
| 2026-05-08 01:18 | 43.98491 | -96.51300 | 38891 ft | 434 kts | 61° |
| 2026-05-08 01:18 | 44.00882 | -96.43611 | 38891 ft | 435 kts | 61° |
| 2026-05-08 01:19 | 44.03266 | -96.35923 | 38892 ft | 435 kts | 61° |
| 2026-05-08 01:19 | 44.05643 | -96.28235 | 38889 ft | 436 kts | 62° |
| 2026-05-08 01:20 | 44.08041 | -96.20456 | 38884 ft | 437 kts | 62° |
| 2026-05-08 01:20 | 44.10420 | -96.12711 | 38890 ft | 438 kts | 62° |
| 2026-05-08 01:21 | 44.12799 | -96.04946 | 38889 ft | 437 kts | 62° |
| 2026-05-08 01:21 | 44.15165 | -95.97198 | 38893 ft | 437 kts | 62° |
| 2026-05-08 01:22 | 44.17940 | -95.89663 | 38928 ft | 441 kts | 54° |
| 2026-05-08 01:22 | 44.20945 | -95.82134 | 38836 ft | 455 kts | 56° |
| 2026-05-08 01:22 | 44.22500 | -95.78191 | 38333 ft | 474 kts | 56° |
| 2026-05-08 01:23 | 44.24100 | -95.74118 | 37800 ft | 480 kts | 56° |
| 2026-05-08 01:23 | 44.25682 | -95.70081 | 37272 ft | 480 kts | 56° |
| 2026-05-08 01:23 | 44.27269 | -95.66031 | 36743 ft | 477 kts | 55° |
| 2026-05-08 01:23 | 44.28872 | -95.61934 | 36215 ft | 474 kts | 55° |
| 2026-05-08 01:24 | 44.30438 | -95.57923 | 35774 ft | 473 kts | 55° |
| 2026-05-08 01:24 | 44.32006 | -95.53907 | 35229 ft | 475 kts | 55° |
| 2026-05-08 01:24 | 44.33570 | -95.49889 | 34697 ft | 474 kts | 54° |
| 2026-05-08 01:24 | 44.35144 | -95.45842 | 34082 ft | 472 kts | 54° |
| 2026-05-08 01:25 | 44.36690 | -95.41865 | 33573 ft | 472 kts | 54° |
| 2026-05-08 01:25 | 44.38261 | -95.37814 | 33048 ft | 474 kts | 54° |
| 2026-05-08 01:25 | 44.39817 | -95.33797 | 32520 ft | 475 kts | 55° |
| 2026-05-08 01:25 | 44.41382 | -95.29751 | 31998 ft | 475 kts | 55° |
| 2026-05-08 01:26 | 44.42939 | -95.25717 | 31475 ft | 470 kts | 55° |
| 2026-05-08 01:26 | 44.44477 | -95.21727 | 30960 ft | 465 kts | 55° |
| 2026-05-08 01:26 | 44.45883 | -95.17660 | 30447 ft | 466 kts | 63° |
| 2026-05-08 01:26 | 44.46931 | -95.13377 | 29992 ft | 466 kts | 66° |
| 2026-05-08 01:27 | 44.47935 | -95.09078 | 29474 ft | 463 kts | 66° |
| 2026-05-08 01:27 | 44.48922 | -95.04842 | 28964 ft | 459 kts | 66° |
| 2026-05-08 01:27 | 44.49898 | -95.00645 | 28461 ft | 454 kts | 66° |
| 2026-05-08 01:27 | 44.50866 | -94.96480 | 27967 ft | 450 kts | 65° |
| 2026-05-08 01:28 | 44.51825 | -94.92339 | 27471 ft | 448 kts | 65° |
| 2026-05-08 01:28 | 44.52779 | -94.88219 | 26980 ft | 445 kts | 65° |
| 2026-05-08 01:28 | 44.53725 | -94.84118 | 26490 ft | 441 kts | 65° |
| 2026-05-08 01:28 | 44.54656 | -94.80080 | 26009 ft | 438 kts | 65° |
| 2026-05-08 01:29 | 44.55582 | -94.76057 | 25529 ft | 435 kts | 65° |
| 2026-05-08 01:29 | 44.56500 | -94.72060 | 25048 ft | 432 kts | 65° |
| 2026-05-08 01:29 | 44.57412 | -94.68078 | 24579 ft | 429 kts | 65° |
| 2026-05-08 01:29 | 44.58327 | -94.64078 | 24098 ft | 426 kts | 65° |
| 2026-05-08 01:30 | 44.59221 | -94.60165 | 23629 ft | 422 kts | 65° |
| 2026-05-08 01:30 | 44.60108 | -94.56274 | 23167 ft | 418 kts | 65° |
| 2026-05-08 01:30 | 44.60988 | -94.52409 | 22709 ft | 416 kts | 65° |
| 2026-05-08 01:30 | 44.61852 | -94.48603 | 22262 ft | 413 kts | 65° |
| 2026-05-08 01:31 | 44.62718 | -94.44784 | 21802 ft | 409 kts | 65° |
| 2026-05-08 01:31 | 44.63579 | -94.40981 | 21355 ft | 408 kts | 65° |
| 2026-05-08 01:31 | 44.64419 | -94.37260 | 20955 ft | 403 kts | 65° |
| 2026-05-08 01:31 | 44.65268 | -94.33497 | 20551 ft | 403 kts | 65° |
| 2026-05-08 01:32 | 44.66107 | -94.29770 | 20113 ft | 400 kts | 65° |
| 2026-05-08 01:32 | 44.66935 | -94.26082 | 19676 ft | 397 kts | 65° |
| 2026-05-08 01:32 | 44.67759 | -94.22419 | 19282 ft | 394 kts | 65° |
| 2026-05-08 01:32 | 44.68586 | -94.18752 | 18852 ft | 391 kts | 65° |
| 2026-05-08 01:33 | 44.69401 | -94.15128 | 18426 ft | 389 kts | 65° |
| 2026-05-08 01:33 | 44.70207 | -94.11542 | 18036 ft | 387 kts | 65° |
| 2026-05-08 01:33 | 44.71015 | -94.07945 | 17694 ft | 383 kts | 65° |
| 2026-05-08 01:33 | 44.71809 | -94.04408 | 17324 ft | 383 kts | 65° |
| 2026-05-08 01:34 | 44.72610 | -94.00829 | 16907 ft | 379 kts | 66° |
| 2026-05-08 01:34 | 44.73391 | -93.97331 | 16493 ft | 376 kts | 66° |
| 2026-05-08 01:34 | 44.74170 | -93.93840 | 16085 ft | 373 kts | 66° |
| 2026-05-08 01:34 | 44.74938 | -93.90396 | 15670 ft | 370 kts | 66° |
| 2026-05-08 01:35 | 44.75698 | -93.86985 | 15260 ft | 360 kts | 66° |
| 2026-05-08 01:35 | 44.76432 | -93.83697 | 14871 ft | 347 kts | 65° |
| 2026-05-08 01:35 | 44.77136 | -93.80539 | 14504 ft | 335 kts | 65° |
| 2026-05-08 01:35 | 44.77822 | -93.77460 | 14128 ft | 325 kts | 65° |
| 2026-05-08 01:36 | 44.78489 | -93.74465 | 13778 ft | 319 kts | 66° |
| 2026-05-08 01:36 | 44.79151 | -93.71490 | 13501 ft | 318 kts | 66° |
| 2026-05-08 01:36 | 44.79808 | -93.68533 | 13174 ft | 320 kts | 66° |
| 2026-05-08 01:36 | 44.80472 | -93.65530 | 12837 ft | 319 kts | 66° |
| 2026-05-08 01:37 | 44.81124 | -93.62577 | 12470 ft | 317 kts | 66° |
| 2026-05-08 01:37 | 44.81775 | -93.59627 | 12124 ft | 315 kts | 66° |
| 2026-05-08 01:37 | 44.82418 | -93.56711 | 11780 ft | 313 kts | 66° |
| 2026-05-08 01:37 | 44.83058 | -93.53802 | 11432 ft | 312 kts | 67° |
| 2026-05-08 01:38 | 44.83697 | -93.50897 | 11083 ft | 311 kts | 67° |
| 2026-05-08 01:38 | 44.84335 | -93.47991 | 10740 ft | 311 kts | 67° |
| 2026-05-08 01:38 | 44.84938 | -93.45068 | 10397 ft | 313 kts | 76° |
| 2026-05-08 01:38 | 44.84759 | -93.42003 | 10058 ft | 318 kts | 108° |
| 2026-05-08 01:39 | 44.83746 | -93.39309 | 9697 ft | 311 kts | 120° |
| 2026-05-08 01:39 | 44.82640 | -93.36742 | 9335 ft | 304 kts | 120° |
| 2026-05-08 01:39 | 44.81556 | -93.34235 | 9000 ft | 296 kts | 121° |
| 2026-05-08 01:39 | 44.80501 | -93.31802 | 8673 ft | 289 kts | 121° |
| 2026-05-08 01:40 | 44.79464 | -93.29414 | 8353 ft | 283 kts | 121° |
| 2026-05-08 01:40 | 44.78455 | -93.27094 | 8057 ft | 276 kts | 122° |
| 2026-05-08 01:40 | 44.77475 | -93.24844 | 7985 ft | 261 kts | 122° |
| 2026-05-08 01:40 | 44.76541 | -93.22700 | 7989 ft | 259 kts | 122° |
| 2026-05-08 01:41 | 44.75592 | -93.20526 | 7995 ft | 262 kts | 122° |
| 2026-05-08 01:41 | 44.74640 | -93.18352 | 7993 ft | 263 kts | 122° |
| 2026-05-08 01:41 | 44.73687 | -93.16170 | 7995 ft | 263 kts | 122° |
| 2026-05-08 01:41 | 44.72733 | -93.13979 | 7977 ft | 260 kts | 122° |
| 2026-05-08 01:42 | 44.71796 | -93.11828 | 7726 ft | 254 kts | 122° |
| 2026-05-08 01:42 | 44.70884 | -93.09734 | 7337 ft | 256 kts | 122° |
| 2026-05-08 01:42 | 44.69952 | -93.07593 | 6930 ft | 257 kts | 122° |
| 2026-05-08 01:42 | 44.69030 | -93.05472 | 6570 ft | 256 kts | 122° |
| 2026-05-08 01:43 | 44.68110 | -93.03347 | 6237 ft | 253 kts | 122° |
| 2026-05-08 01:43 | 44.67207 | -93.01225 | 5909 ft | 250 kts | 115° |
| 2026-05-08 01:43 | 44.66949 | -92.98905 | 5539 ft | 244 kts | 75° |
| 2026-05-08 01:43 | 44.67696 | -92.96841 | 5174 ft | 234 kts | 48° |
| 2026-05-08 01:44 | 44.68866 | -92.95373 | 4802 ft | 224 kts | 17° |
| 2026-05-08 01:44 | 44.70352 | -92.95191 | 4425 ft | 215 kts | 348° |
| 2026-05-08 01:44 | 44.71818 | -92.95531 | 4083 ft | 214 kts | 346° |
| 2026-05-08 01:44 | 44.73283 | -92.95893 | 4007 ft | 214 kts | 347° |
| 2026-05-08 01:45 | 44.74748 | -92.96257 | 3995 ft | 213 kts | 346° |
| 2026-05-08 01:45 | 44.76205 | -92.96620 | 3997 ft | 213 kts | 347° |
| 2026-05-08 01:45 | 44.77660 | -92.96982 | 3999 ft | 212 kts | 345° |
| 2026-05-08 01:45 | 44.78914 | -92.97953 | 4015 ft | 207 kts | 305° |
| 2026-05-08 01:46 | 44.79615 | -92.99706 | 3985 ft | 209 kts | 298° |
| 2026-05-08 01:46 | 44.80324 | -93.01469 | 3772 ft | 203 kts | 300° |
| 2026-05-08 01:46 | 44.81040 | -93.03154 | 3504 ft | 197 kts | 301° |
| 2026-05-08 01:46 | 44.81737 | -93.04761 | 3251 ft | 191 kts | 301° |
| 2026-05-08 01:47 | 44.82420 | -93.06326 | 3011 ft | 184 kts | 301° |
| 2026-05-08 01:47 | 44.83066 | -93.07805 | 2789 ft | 164 kts | 301° |
| 2026-05-08 01:47 | 44.83620 | -93.09074 | 2552 ft | 146 kts | 301° |
| 2026-05-08 01:48 | 44.84575 | -93.11260 | 2141 ft | 119 kts | 301° |
| 2026-05-08 01:48 | 44.85007 | -93.12251 | 1995 ft | 117 kts | 300° |
| 2026-05-08 01:48 | 44.85439 | -93.13242 | 1853 ft | 118 kts | 300° |
| 2026-05-08 01:48 | 44.85870 | -93.14231 | 1693 ft | 120 kts | 300° |
| 2026-05-08 01:49 | 44.86321 | -93.15236 | 1519 ft | 122 kts | 300° |
| 2026-05-08 01:49 | 44.86771 | -93.16267 | 1348 ft | 124 kts | 300° |
| 2026-05-08 01:49 | 44.87219 | -93.17303 | 1210 ft | 124 kts | 301° |
| 2026-05-08 01:49 | 44.87661 | -93.18328 | 1055 ft | 123 kts | 301° |
| 2026-05-08 01:50 | 44.88110 | -93.19357 | 869 ft | 124 kts | 301° |
| 2026-05-08 01:50 | 44.88538 | -93.20346 | 815 ft | 106 kts | 301° |
| 2026-05-08 01:50 | 44.88829 | -93.21022 | 824 ft | 61 kts | 301° |
| 2026-05-08 01:50 | 44.88910 | -93.21246 | 825 ft | 8 kts | 238° |
| 2026-05-08 01:51 | 44.88861 | -93.21316 | 824 ft | 11 kts | 225° |
| 2026-05-08 01:51 | 44.88801 | -93.21392 | 825 ft | 11 kts | 203° |
| 2026-05-08 01:51 | 44.88747 | -93.21326 | 824 ft | 13 kts | 110° |
| 2026-05-08 01:51 | 44.88713 | -93.21203 | 824 ft | 14 kts | 111° |
| 2026-05-08 01:52 | 44.88665 | -93.21068 | 822 ft | 16 kts | 121° |
| 2026-05-08 01:52 | 44.88606 | -93.20932 | 820 ft | 14 kts | 121° |
| 2026-05-08 01:52 | 44.88571 | -93.20853 | 820 ft | 8 kts | 122° |
| 2026-05-08 01:52 | 44.88530 | -93.20811 | 820 ft | 8 kts | 198° |
| 2026-05-08 01:53 | 44.88478 | -93.20851 | 820 ft | 6 kts | 210° |
| 2026-05-08 01:53 | 44.88458 | -93.20868 | 820 ft | 0 kts | 211° |
| 2026-05-08 01:53 | 44.88455 | -93.20870 | 820 ft | 0 kts | 211° |